sensor_id;sensor_type;location;lat;lon;timestamp;P1;durP1;ratioP1;P2;durP2;ratioP2
37141;SDS011;23041;49.816;20.092;2022-11-15T00:00:47;50.30;;;32.23;;
37141;SDS011;23041;49.816;20.092;2022-11-15T00:03:17;51.23;;;32.10;;
37141;SDS011;23041;49.816;20.092;2022-11-15T00:05:46;47.75;;;31.62;;
37141;SDS011;23041;49.816;20.092;2022-11-15T00:08:13;54.73;;;34.33;;
37141;SDS011;23041;49.816;20.092;2022-11-15T00:10:39;61.42;;;37.58;;
37141;SDS011;23041;49.816;20.092;2022-11-15T00:13:06;55.90;;;34.95;;
37141;SDS011;23041;49.816;20.092;2022-11-15T00:15:34;59.30;;;38.42;;
37141;SDS011;23041;49.816;20.092;2022-11-15T00:18:02;76.00;;;44.03;;
37141;SDS011;23041;49.816;20.092;2022-11-15T00:20:30;64.60;;;38.48;;
37141;SDS011;23041;49.816;20.092;2022-11-15T00:22:59;59.88;;;35.00;;
37141;SDS011;23041;49.816;20.092;2022-11-15T00:25:25;57.70;;;34.83;;
37141;SDS011;23041;49.816;20.092;2022-11-15T00:27:56;49.38;;;32.03;;
37141;SDS011;23041;49.816;20.092;2022-11-15T00:30:24;51.15;;;32.53;;
37141;SDS011;23041;49.816;20.092;2022-11-15T00:32:51;51.75;;;32.98;;
37141;SDS011;23041;49.816;20.092;2022-11-15T00:35:18;64.32;;;38.05;;
37141;SDS011;23041;49.816;20.092;2022-11-15T00:37:44;74.35;;;41.25;;
37141;SDS011;23041;49.816;20.092;2022-11-15T00:40:12;59.80;;;35.00;;
37141;SDS011;23041;49.816;20.092;2022-11-15T00:42:39;58.70;;;36.00;;
37141;SDS011;23041;49.816;20.092;2022-11-15T00:45:07;49.33;;;29.20;;
37141;SDS011;23041;49.816;20.092;2022-11-15T00:47:34;42.55;;;28.27;;
37141;SDS011;23041;49.816;20.092;2022-11-15T00:50:01;49.88;;;30.40;;
37141;SDS011;23041;49.816;20.092;2022-11-15T00:52:27;55.03;;;34.33;;
37141;SDS011;23041;49.816;20.092;2022-11-15T00:54:53;51.95;;;33.13;;
37141;SDS011;23041;49.816;20.092;2022-11-15T00:57:20;55.38;;;34.50;;
37141;SDS011;23041;49.816;20.092;2022-11-15T00:59:46;59.40;;;34.23;;
37141;SDS011;23041;49.816;20.092;2022-11-15T01:02:12;53.98;;;33.58;;
37141;SDS011;23041;49.816;20.092;2022-11-15T01:04:39;54.83;;;34.65;;
37141;SDS011;23041;49.816;20.092;2022-11-15T01:07:05;47.73;;;31.90;;
37141;SDS011;23041;49.816;20.092;2022-11-15T01:09:31;50.98;;;31.77;;
37141;SDS011;23041;49.816;20.092;2022-11-15T01:11:58;47.43;;;31.05;;
37141;SDS011;23041;49.816;20.092;2022-11-15T01:14:24;47.20;;;30.82;;
37141;SDS011;23041;49.816;20.092;2022-11-15T01:16:51;45.05;;;32.03;;
37141;SDS011;23041;49.816;20.092;2022-11-15T01:19:17;45.08;;;30.77;;
37141;SDS011;23041;49.816;20.092;2022-11-15T01:21:43;45.48;;;29.32;;
37141;SDS011;23041;49.816;20.092;2022-11-15T01:24:13;55.98;;;34.27;;
37141;SDS011;23041;49.816;20.092;2022-11-15T01:26:39;60.30;;;37.45;;
37141;SDS011;23041;49.816;20.092;2022-11-15T01:29:06;66.95;;;39.20;;
37141;SDS011;23041;49.816;20.092;2022-11-15T01:31:32;47.60;;;31.12;;
37141;SDS011;23041;49.816;20.092;2022-11-15T01:33:59;49.60;;;31.17;;
37141;SDS011;23041;49.816;20.092;2022-11-15T01:36:25;50.40;;;30.25;;
37141;SDS011;23041;49.816;20.092;2022-11-15T01:38:55;49.38;;;30.80;;
37141;SDS011;23041;49.816;20.092;2022-11-15T01:41:27;53.33;;;32.13;;
37141;SDS011;23041;49.816;20.092;2022-11-15T01:43:57;62.60;;;39.50;;
37141;SDS011;23041;49.816;20.092;2022-11-15T01:47:02;59.30;;;37.38;;
37141;SDS011;23041;49.816;20.092;2022-11-15T01:49:35;44.88;;;30.75;;
37141;SDS011;23041;49.816;20.092;2022-11-15T01:54:34;42.62;;;28.40;;
37141;SDS011;23041;49.816;20.092;2022-11-15T01:57:02;47.90;;;32.50;;
37141;SDS011;23041;49.816;20.092;2022-11-15T01:59:32;47.80;;;32.78;;
37141;SDS011;23041;49.816;20.092;2022-11-15T02:01:59;42.15;;;30.37;;
37141;SDS011;23041;49.816;20.092;2022-11-15T02:04:27;50.67;;;33.83;;
37141;SDS011;23041;49.816;20.092;2022-11-15T02:06:57;40.65;;;29.00;;
37141;SDS011;23041;49.816;20.092;2022-11-15T02:09:25;43.42;;;29.32;;
37141;SDS011;23041;49.816;20.092;2022-11-15T02:11:51;40.67;;;28.15;;
37141;SDS011;23041;49.816;20.092;2022-11-15T02:14:20;37.65;;;26.30;;
37141;SDS011;23041;49.816;20.092;2022-11-15T02:35:16;50.05;;;31.48;;
37141;SDS011;23041;49.816;20.092;2022-11-15T02:37:46;54.33;;;33.45;;
37141;SDS011;23041;49.816;20.092;2022-11-15T02:43:17;45.35;;;29.55;;
37141;SDS011;23041;49.816;20.092;2022-11-15T02:49:16;41.68;;;26.80;;
37141;SDS011;23041;49.816;20.092;2022-11-15T02:51:44;43.28;;;27.52;;
37141;SDS011;23041;49.816;20.092;2022-11-15T02:56:56;62.40;;;36.08;;
37141;SDS011;23041;49.816;20.092;2022-11-15T02:59:48;71.17;;;41.37;;
37141;SDS011;23041;49.816;20.092;2022-11-15T03:06:05;62.13;;;39.23;;
37141;SDS011;23041;49.816;20.092;2022-11-15T03:11:43;59.33;;;36.73;;
37141;SDS011;23041;49.816;20.092;2022-11-15T03:14:13;50.95;;;32.63;;
37141;SDS011;23041;49.816;20.092;2022-11-15T03:22:16;43.30;;;26.97;;
37141;SDS011;23041;49.816;20.092;2022-11-15T03:24:47;37.20;;;25.60;;
37141;SDS011;23041;49.816;20.092;2022-11-15T03:27:19;44.50;;;27.73;;
37141;SDS011;23041;49.816;20.092;2022-11-15T03:29:50;45.50;;;28.52;;
37141;SDS011;23041;49.816;20.092;2022-11-15T03:32:22;38.73;;;25.95;;
37141;SDS011;23041;49.816;20.092;2022-11-15T03:34:56;30.02;;;22.27;;
37141;SDS011;23041;49.816;20.092;2022-11-15T03:37:37;32.20;;;21.80;;
37141;SDS011;23041;49.816;20.092;2022-11-15T03:40:04;30.82;;;22.10;;
37141;SDS011;23041;49.816;20.092;2022-11-15T03:42:38;30.08;;;22.20;;
37141;SDS011;23041;49.816;20.092;2022-11-15T03:45:28;32.90;;;21.27;;
37141;SDS011;23041;49.816;20.092;2022-11-15T03:48:10;29.37;;;22.13;;
37141;SDS011;23041;49.816;20.092;2022-11-15T03:50:44;29.82;;;23.38;;
37141;SDS011;23041;49.816;20.092;2022-11-15T03:53:12;33.10;;;22.95;;
37141;SDS011;23041;49.816;20.092;2022-11-15T03:55:39;29.70;;;21.57;;
37141;SDS011;23041;49.816;20.092;2022-11-15T03:58:05;34.33;;;23.75;;
37141;SDS011;23041;49.816;20.092;2022-11-15T04:00:32;33.25;;;22.77;;
37141;SDS011;23041;49.816;20.092;2022-11-15T04:02:58;33.95;;;24.55;;
37141;SDS011;23041;49.816;20.092;2022-11-15T04:05:25;36.45;;;24.12;;
37141;SDS011;23041;49.816;20.092;2022-11-15T04:07:51;30.92;;;22.70;;
37141;SDS011;23041;49.816;20.092;2022-11-15T04:10:17;44.63;;;33.40;;
37141;SDS011;23041;49.816;20.092;2022-11-15T04:12:44;38.63;;;27.73;;
37141;SDS011;23041;49.816;20.092;2022-11-15T04:15:17;33.70;;;23.83;;
37141;SDS011;23041;49.816;20.092;2022-11-15T04:20:18;36.08;;;23.25;;
37141;SDS011;23041;49.816;20.092;2022-11-15T04:23:06;35.83;;;24.82;;
37141;SDS011;23041;49.816;20.092;2022-11-15T04:25:54;37.80;;;24.27;;
37141;SDS011;23041;49.816;20.092;2022-11-15T04:28:23;41.80;;;27.10;;
37141;SDS011;23041;49.816;20.092;2022-11-15T04:30:49;39.23;;;25.90;;
37141;SDS011;23041;49.816;20.092;2022-11-15T04:33:16;35.03;;;23.85;;
37141;SDS011;23041;49.816;20.092;2022-11-15T04:35:42;35.35;;;25.30;;
37141;SDS011;23041;49.816;20.092;2022-11-15T04:38:10;32.67;;;23.42;;
37141;SDS011;23041;49.816;20.092;2022-11-15T04:40:37;31.95;;;20.15;;
37141;SDS011;23041;49.816;20.092;2022-11-15T04:43:04;31.80;;;19.32;;
37141;SDS011;23041;49.816;20.092;2022-11-15T04:45:30;27.70;;;19.17;;
37141;SDS011;23041;49.816;20.092;2022-11-15T04:47:56;32.17;;;20.52;;
37141;SDS011;23041;49.816;20.092;2022-11-15T04:50:23;53.98;;;29.95;;
37141;SDS011;23041;49.816;20.092;2022-11-15T04:52:50;36.70;;;23.47;;
37141;SDS011;23041;49.816;20.092;2022-11-15T04:55:19;33.70;;;23.25;;
37141;SDS011;23041;49.816;20.092;2022-11-15T04:57:46;35.80;;;25.48;;
37141;SDS011;23041;49.816;20.092;2022-11-15T05:00:13;33.20;;;20.72;;
37141;SDS011;23041;49.816;20.092;2022-11-15T05:02:42;33.45;;;20.25;;
37141;SDS011;23041;49.816;20.092;2022-11-15T05:05:27;21.48;;;15.55;;
37141;SDS011;23041;49.816;20.092;2022-11-15T05:07:53;15.60;;;11.75;;
37141;SDS011;23041;49.816;20.092;2022-11-15T05:10:19;16.15;;;12.60;;
37141;SDS011;23041;49.816;20.092;2022-11-15T05:12:46;20.05;;;14.68;;
37141;SDS011;23041;49.816;20.092;2022-11-15T05:15:12;20.92;;;14.58;;
37141;SDS011;23041;49.816;20.092;2022-11-15T05:17:39;21.00;;;16.52;;
37141;SDS011;23041;49.816;20.092;2022-11-15T05:20:05;26.80;;;18.17;;
37141;SDS011;23041;49.816;20.092;2022-11-15T05:22:32;25.45;;;16.62;;
37141;SDS011;23041;49.816;20.092;2022-11-15T05:24:59;20.85;;;15.60;;
37141;SDS011;23041;49.816;20.092;2022-11-15T05:27:25;18.27;;;14.10;;
37141;SDS011;23041;49.816;20.092;2022-11-15T05:29:51;20.95;;;14.53;;
37141;SDS011;23041;49.816;20.092;2022-11-15T05:32:18;31.07;;;22.70;;
37141;SDS011;23041;49.816;20.092;2022-11-15T05:34:44;29.15;;;21.50;;
37141;SDS011;23041;49.816;20.092;2022-11-15T05:37:12;27.55;;;21.48;;
37141;SDS011;23041;49.816;20.092;2022-11-15T05:39:39;32.25;;;23.42;;
37141;SDS011;23041;49.816;20.092;2022-11-15T05:42:07;25.17;;;19.30;;
37141;SDS011;23041;49.816;20.092;2022-11-15T05:44:36;24.35;;;19.25;;
37141;SDS011;23041;49.816;20.092;2022-11-15T05:47:08;26.68;;;18.80;;
37141;SDS011;23041;49.816;20.092;2022-11-15T05:49:39;22.10;;;17.40;;
37141;SDS011;23041;49.816;20.092;2022-11-15T05:52:08;24.82;;;17.92;;
37141;SDS011;23041;49.816;20.092;2022-11-15T05:54:37;28.25;;;17.00;;
37141;SDS011;23041;49.816;20.092;2022-11-15T05:57:04;22.05;;;16.37;;
37141;SDS011;23041;49.816;20.092;2022-11-15T05:59:31;22.58;;;16.00;;
37141;SDS011;23041;49.816;20.092;2022-11-15T06:01:59;22.87;;;16.77;;
37141;SDS011;23041;49.816;20.092;2022-11-15T06:04:26;23.50;;;17.23;;
37141;SDS011;23041;49.816;20.092;2022-11-15T06:06:52;25.25;;;19.40;;
37141;SDS011;23041;49.816;20.092;2022-11-15T06:09:18;22.45;;;17.42;;
37141;SDS011;23041;49.816;20.092;2022-11-15T06:11:45;28.07;;;21.30;;
37141;SDS011;23041;49.816;20.092;2022-11-15T06:14:11;27.55;;;18.92;;
37141;SDS011;23041;49.816;20.092;2022-11-15T06:16:37;28.73;;;21.00;;
37141;SDS011;23041;49.816;20.092;2022-11-15T06:19:05;31.62;;;19.62;;
37141;SDS011;23041;49.816;20.092;2022-11-15T06:21:33;28.27;;;21.02;;
37141;SDS011;23041;49.816;20.092;2022-11-15T06:23:59;26.65;;;20.72;;
37141;SDS011;23041;49.816;20.092;2022-11-15T06:26:25;27.95;;;20.40;;
37141;SDS011;23041;49.816;20.092;2022-11-15T06:28:52;30.00;;;21.80;;
37141;SDS011;23041;49.816;20.092;2022-11-15T06:31:18;46.42;;;34.30;;
37141;SDS011;23041;49.816;20.092;2022-11-15T06:33:46;29.18;;;22.82;;
37141;SDS011;23041;49.816;20.092;2022-11-15T06:36:12;37.90;;;25.35;;
37141;SDS011;23041;49.816;20.092;2022-11-15T06:38:40;30.23;;;23.00;;
37141;SDS011;23041;49.816;20.092;2022-11-15T06:41:07;35.00;;;25.55;;
37141;SDS011;23041;49.816;20.092;2022-11-15T06:43:35;33.35;;;25.48;;
37141;SDS011;23041;49.816;20.092;2022-11-15T06:46:02;49.20;;;34.27;;
37141;SDS011;23041;49.816;20.092;2022-11-15T06:48:31;34.30;;;27.13;;
37141;SDS011;23041;49.816;20.092;2022-11-15T06:50:59;37.38;;;28.57;;
37141;SDS011;23041;49.816;20.092;2022-11-15T06:53:26;34.67;;;28.83;;
37141;SDS011;23041;49.816;20.092;2022-11-15T06:55:56;59.23;;;43.17;;
37141;SDS011;23041;49.816;20.092;2022-11-15T06:58:24;91.22;;;71.62;;
37141;SDS011;23041;49.816;20.092;2022-11-15T07:00:50;41.18;;;32.78;;
37141;SDS011;23041;49.816;20.092;2022-11-15T07:03:17;33.15;;;25.40;;
37141;SDS011;23041;49.816;20.092;2022-11-15T07:05:50;27.10;;;23.60;;
37141;SDS011;23041;49.816;20.092;2022-11-15T07:08:22;30.23;;;24.30;;
37141;SDS011;23041;49.816;20.092;2022-11-15T07:10:50;27.50;;;22.25;;
37141;SDS011;23041;49.816;20.092;2022-11-15T07:13:16;25.68;;;21.00;;
37141;SDS011;23041;49.816;20.092;2022-11-15T07:15:43;24.57;;;20.35;;
37141;SDS011;23041;49.816;20.092;2022-11-15T07:18:09;23.98;;;20.82;;
37141;SDS011;23041;49.816;20.092;2022-11-15T07:20:36;31.35;;;26.90;;
37141;SDS011;23041;49.816;20.092;2022-11-15T07:23:02;22.17;;;19.05;;
37141;SDS011;23041;49.816;20.092;2022-11-15T07:25:30;22.82;;;20.43;;
37141;SDS011;23041;49.816;20.092;2022-11-15T07:27:57;21.97;;;19.67;;
37141;SDS011;23041;49.816;20.092;2022-11-15T07:30:25;22.90;;;20.23;;
37141;SDS011;23041;49.816;20.092;2022-11-15T07:33:00;21.65;;;18.42;;
37141;SDS011;23041;49.816;20.092;2022-11-15T07:35:25;24.45;;;21.87;;
37141;SDS011;23041;49.816;20.092;2022-11-15T07:37:57;22.17;;;19.57;;
37141;SDS011;23041;49.816;20.092;2022-11-15T07:40:23;25.77;;;21.65;;
37141;SDS011;23041;49.816;20.092;2022-11-15T07:42:50;22.42;;;20.02;;
37141;SDS011;23041;49.816;20.092;2022-11-15T07:45:20;20.73;;;18.53;;
37141;SDS011;23041;49.816;20.092;2022-11-15T07:47:48;22.22;;;19.70;;
37141;SDS011;23041;49.816;20.092;2022-11-15T07:50:16;25.05;;;20.65;;
37141;SDS011;23041;49.816;20.092;2022-11-15T07:52:43;25.35;;;22.82;;
37141;SDS011;23041;49.816;20.092;2022-11-15T07:55:10;24.77;;;22.25;;
37141;SDS011;23041;49.816;20.092;2022-11-15T07:57:37;23.40;;;20.68;;
37141;SDS011;23041;49.816;20.092;2022-11-15T08:00:04;21.75;;;19.45;;
37141;SDS011;23041;49.816;20.092;2022-11-15T08:02:32;19.52;;;17.62;;
37141;SDS011;23041;49.816;20.092;2022-11-15T08:04:59;20.40;;;18.40;;
37141;SDS011;23041;49.816;20.092;2022-11-15T08:07:27;23.35;;;20.40;;
37141;SDS011;23041;49.816;20.092;2022-11-15T08:09:57;22.30;;;19.05;;
37141;SDS011;23041;49.816;20.092;2022-11-15T08:12:24;24.55;;;21.82;;
37141;SDS011;23041;49.816;20.092;2022-11-15T08:14:50;23.02;;;20.80;;
37141;SDS011;23041;49.816;20.092;2022-11-15T08:17:17;25.25;;;22.55;;
37141;SDS011;23041;49.816;20.092;2022-11-15T08:19:43;25.60;;;22.90;;
37141;SDS011;23041;49.816;20.092;2022-11-15T08:22:09;32.65;;;25.48;;
37141;SDS011;23041;49.816;20.092;2022-11-15T08:24:35;25.25;;;22.65;;
37141;SDS011;23041;49.816;20.092;2022-11-15T08:27:02;25.70;;;23.15;;
37141;SDS011;23041;49.816;20.092;2022-11-15T08:29:28;25.62;;;22.82;;
37141;SDS011;23041;49.816;20.092;2022-11-15T08:31:55;24.60;;;22.00;;
37141;SDS011;23041;49.816;20.092;2022-11-15T08:34:21;23.55;;;21.20;;
37141;SDS011;23041;49.816;20.092;2022-11-15T08:36:48;25.00;;;22.50;;
37141;SDS011;23041;49.816;20.092;2022-11-15T08:39:14;22.42;;;20.08;;
37141;SDS011;23041;49.816;20.092;2022-11-15T08:41:41;21.07;;;18.95;;
37141;SDS011;23041;49.816;20.092;2022-11-15T08:44:07;22.95;;;18.07;;
37141;SDS011;23041;49.816;20.092;2022-11-15T08:46:33;18.87;;;17.27;;
37141;SDS011;23041;49.816;20.092;2022-11-15T08:49:00;19.55;;;17.65;;
37141;SDS011;23041;49.816;20.092;2022-11-15T08:51:26;18.80;;;17.05;;
37141;SDS011;23041;49.816;20.092;2022-11-15T08:53:52;20.37;;;17.98;;
37141;SDS011;23041;49.816;20.092;2022-11-15T08:56:19;21.85;;;19.65;;
37141;SDS011;23041;49.816;20.092;2022-11-15T08:58:45;18.90;;;17.20;;
37141;SDS011;23041;49.816;20.092;2022-11-15T09:01:17;19.35;;;17.45;;
37141;SDS011;23041;49.816;20.092;2022-11-15T09:03:43;19.17;;;17.52;;
37141;SDS011;23041;49.816;20.092;2022-11-15T09:06:09;20.25;;;18.25;;
37141;SDS011;23041;49.816;20.092;2022-11-15T09:08:36;22.30;;;19.80;;
37141;SDS011;23041;49.816;20.092;2022-11-15T09:11:03;21.48;;;19.20;;
37141;SDS011;23041;49.816;20.092;2022-11-15T09:13:34;18.77;;;17.05;;
37141;SDS011;23041;49.816;20.092;2022-11-15T09:16:02;17.92;;;16.17;;
37141;SDS011;23041;49.816;20.092;2022-11-15T09:18:29;19.65;;;17.75;;
37141;SDS011;23041;49.816;20.092;2022-11-15T09:21:01;20.15;;;18.35;;
37141;SDS011;23041;49.816;20.092;2022-11-15T09:23:25;21.85;;;19.75;;
37141;SDS011;23041;49.816;20.092;2022-11-15T09:25:52;22.17;;;18.98;;
37141;SDS011;23041;49.816;20.092;2022-11-15T09:28:25;20.23;;;18.32;;
37141;SDS011;23041;49.816;20.092;2022-11-15T09:30:51;18.45;;;16.75;;
37141;SDS011;23041;49.816;20.092;2022-11-15T09:33:27;19.42;;;17.52;;
37141;SDS011;23041;49.816;20.092;2022-11-15T09:35:54;18.90;;;17.10;;
37141;SDS011;23041;49.816;20.092;2022-11-15T09:38:26;20.25;;;18.00;;
37141;SDS011;23041;49.816;20.092;2022-11-15T09:40:57;16.25;;;14.70;;
37141;SDS011;23041;49.816;20.092;2022-11-15T09:46:52;16.02;;;14.73;;
37141;SDS011;23041;49.816;20.092;2022-11-15T09:49:34;15.53;;;14.13;;
37141;SDS011;23041;49.816;20.092;2022-11-15T09:52:01;14.47;;;13.25;;
37141;SDS011;23041;49.816;20.092;2022-11-15T09:54:32;14.15;;;13.03;;
37141;SDS011;23041;49.816;20.092;2022-11-15T09:57:09;13.05;;;12.05;;
37141;SDS011;23041;49.816;20.092;2022-11-15T10:05:38;16.05;;;14.55;;
37141;SDS011;23041;49.816;20.092;2022-11-15T10:11:10;15.20;;;13.93;;
37141;SDS011;23041;49.816;20.092;2022-11-15T10:13:44;13.68;;;12.40;;
37141;SDS011;23041;49.816;20.092;2022-11-15T10:27:38;13.22;;;11.93;;
37141;SDS011;23041;49.816;20.092;2022-11-15T10:30:11;10.95;;;9.85;;
37141;SDS011;23041;49.816;20.092;2022-11-15T10:32:40;13.25;;;12.15;;
37141;SDS011;23041;49.816;20.092;2022-11-15T10:35:21;14.63;;;13.22;;
37141;SDS011;23041;49.816;20.092;2022-11-15T10:38:04;13.15;;;11.88;;
37141;SDS011;23041;49.816;20.092;2022-11-15T10:40:36;9.83;;;9.10;;
37141;SDS011;23041;49.816;20.092;2022-11-15T10:45:42;15.00;;;13.40;;
37141;SDS011;23041;49.816;20.092;2022-11-15T10:50:47;16.70;;;15.18;;
37141;SDS011;23041;49.816;20.092;2022-11-15T10:53:25;18.12;;;16.12;;
37141;SDS011;23041;49.816;20.092;2022-11-15T10:56:07;16.90;;;14.90;;
37141;SDS011;23041;49.816;20.092;2022-11-15T10:58:38;17.12;;;15.32;;
37141;SDS011;23041;49.816;20.092;2022-11-15T11:01:13;17.35;;;15.65;;
37141;SDS011;23041;49.816;20.092;2022-11-15T11:03:59;16.37;;;14.78;;
37141;SDS011;23041;49.816;20.092;2022-11-15T11:06:53;16.32;;;14.83;;
37141;SDS011;23041;49.816;20.092;2022-11-15T11:09:34;16.60;;;15.10;;
37141;SDS011;23041;49.816;20.092;2022-11-15T11:12:04;16.80;;;15.20;;
37141;SDS011;23041;49.816;20.092;2022-11-15T11:14:34;18.30;;;16.57;;
37141;SDS011;23041;49.816;20.092;2022-11-15T11:20:10;20.82;;;18.60;;
37141;SDS011;23041;49.816;20.092;2022-11-15T11:25:53;18.87;;;17.02;;
37141;SDS011;23041;49.816;20.092;2022-11-15T11:28:48;17.92;;;16.23;;
37141;SDS011;23041;49.816;20.092;2022-11-15T11:37:12;15.80;;;14.25;;
37141;SDS011;23041;49.816;20.092;2022-11-15T11:40:04;16.07;;;14.58;;
37141;SDS011;23041;49.816;20.092;2022-11-15T11:42:53;15.63;;;14.00;;
37141;SDS011;23041;49.816;20.092;2022-11-15T11:51:18;17.05;;;15.30;;
37141;SDS011;23041;49.816;20.092;2022-11-15T11:53:58;17.50;;;15.90;;
37141;SDS011;23041;49.816;20.092;2022-11-15T11:56:47;20.37;;;18.42;;
37141;SDS011;23041;49.816;20.092;2022-11-15T11:59:33;20.88;;;18.75;;
37141;SDS011;23041;49.816;20.092;2022-11-15T12:02:16;21.33;;;19.17;;
37141;SDS011;23041;49.816;20.092;2022-11-15T12:05:12;21.20;;;18.82;;
37141;SDS011;23041;49.816;20.092;2022-11-15T12:07:45;22.40;;;20.05;;
37141;SDS011;23041;49.816;20.092;2022-11-15T12:10:16;22.52;;;20.23;;
37141;SDS011;23041;49.816;20.092;2022-11-15T12:13:10;20.97;;;18.80;;
37141;SDS011;23041;49.816;20.092;2022-11-15T12:15:52;21.95;;;19.67;;
37141;SDS011;23041;49.816;20.092;2022-11-15T12:18:25;25.40;;;21.23;;
37141;SDS011;23041;49.816;20.092;2022-11-15T12:20:53;23.70;;;21.30;;
37141;SDS011;23041;49.816;20.092;2022-11-15T12:23:32;23.40;;;20.95;;
37141;SDS011;23041;49.816;20.092;2022-11-15T12:28:40;26.50;;;23.50;;
37141;SDS011;23041;49.816;20.092;2022-11-15T12:31:21;23.92;;;21.27;;
37141;SDS011;23041;49.816;20.092;2022-11-15T12:33:57;23.45;;;20.68;;
37141;SDS011;23041;49.816;20.092;2022-11-15T12:39:07;27.05;;;21.10;;
37141;SDS011;23041;49.816;20.092;2022-11-15T12:41:42;26.73;;;21.70;;
37141;SDS011;23041;49.816;20.092;2022-11-15T12:44:11;24.30;;;20.88;;
37141;SDS011;23041;49.816;20.092;2022-11-15T12:47:03;22.55;;;19.48;;
37141;SDS011;23041;49.816;20.092;2022-11-15T12:52:08;30.05;;;22.98;;
37141;SDS011;23041;49.816;20.092;2022-11-15T12:59:57;27.40;;;21.07;;
37141;SDS011;23041;49.816;20.092;2022-11-15T13:02:43;26.33;;;21.50;;
37141;SDS011;23041;49.816;20.092;2022-11-15T13:12:58;23.62;;;20.68;;
37141;SDS011;23041;49.816;20.092;2022-11-15T13:18:33;31.17;;;22.45;;
37141;SDS011;23041;49.816;20.092;2022-11-15T13:21:03;27.07;;;22.40;;
37141;SDS011;23041;49.816;20.092;2022-11-15T13:23:35;27.05;;;21.87;;
37141;SDS011;23041;49.816;20.092;2022-11-15T13:26:12;29.57;;;22.55;;
37141;SDS011;23041;49.816;20.092;2022-11-15T13:33:51;38.55;;;24.52;;
37141;SDS011;23041;49.816;20.092;2022-11-15T13:39:02;103.05;;;48.00;;
37141;SDS011;23041;49.816;20.092;2022-11-15T13:41:32;65.70;;;39.00;;
37141;SDS011;23041;49.816;20.092;2022-11-15T13:44:01;112.70;;;80.83;;
37141;SDS011;23041;49.816;20.092;2022-11-15T13:46:33;65.05;;;50.28;;
37141;SDS011;23041;49.816;20.092;2022-11-15T13:49:04;48.75;;;38.33;;
37141;SDS011;23041;49.816;20.092;2022-11-15T13:51:42;44.95;;;35.10;;
37141;SDS011;23041;49.816;20.092;2022-11-15T13:57:08;45.45;;;32.20;;
37141;SDS011;23041;49.816;20.092;2022-11-15T13:59:51;30.35;;;23.65;;
37141;SDS011;23041;49.816;20.092;2022-11-15T14:02:28;33.33;;;25.02;;
37141;SDS011;23041;49.816;20.092;2022-11-15T14:05:00;39.13;;;26.77;;
37141;SDS011;23041;49.816;20.092;2022-11-15T14:07:29;36.83;;;28.95;;
37141;SDS011;23041;49.816;20.092;2022-11-15T14:09:56;35.98;;;27.48;;
37141;SDS011;23041;49.816;20.092;2022-11-15T14:14:59;34.00;;;26.45;;
37141;SDS011;23041;49.816;20.092;2022-11-15T14:20:00;32.98;;;25.85;;
37141;SDS011;23041;49.816;20.092;2022-11-15T14:22:29;42.05;;;30.08;;
37141;SDS011;23041;49.816;20.092;2022-11-15T14:27:45;34.70;;;28.27;;
37141;SDS011;23041;49.816;20.092;2022-11-15T14:30:39;33.35;;;27.07;;
37141;SDS011;23041;49.816;20.092;2022-11-15T14:33:18;47.95;;;31.37;;
37141;SDS011;23041;49.816;20.092;2022-11-15T14:36:05;59.33;;;40.90;;
37141;SDS011;23041;49.816;20.092;2022-11-15T14:41:18;48.90;;;35.78;;
37141;SDS011;23041;49.816;20.092;2022-11-15T14:43:47;40.20;;;29.18;;
37141;SDS011;23041;49.816;20.092;2022-11-15T14:46:13;37.80;;;25.30;;
37141;SDS011;23041;49.816;20.092;2022-11-15T14:48:40;36.53;;;25.82;;
37141;SDS011;23041;49.816;20.092;2022-11-15T14:51:10;38.42;;;26.90;;
37141;SDS011;23041;49.816;20.092;2022-11-15T14:53:39;36.40;;;26.52;;
37141;SDS011;23041;49.816;20.092;2022-11-15T14:56:06;35.70;;;26.82;;
37141;SDS011;23041;49.816;20.092;2022-11-15T14:58:33;39.23;;;29.25;;
37141;SDS011;23041;49.816;20.092;2022-11-15T15:01:00;41.77;;;30.20;;
37141;SDS011;23041;49.816;20.092;2022-11-15T15:03:30;40.15;;;28.60;;
37141;SDS011;23041;49.816;20.092;2022-11-15T15:05:57;42.58;;;27.00;;
37141;SDS011;23041;49.816;20.092;2022-11-15T15:08:23;37.65;;;27.45;;
37141;SDS011;23041;49.816;20.092;2022-11-15T15:10:49;41.42;;;29.70;;
37141;SDS011;23041;49.816;20.092;2022-11-15T15:13:20;39.23;;;29.55;;
37141;SDS011;23041;49.816;20.092;2022-11-15T15:15:48;36.35;;;26.05;;
37141;SDS011;23041;49.816;20.092;2022-11-15T15:18:17;33.78;;;26.02;;
37141;SDS011;23041;49.816;20.092;2022-11-15T15:20:44;42.58;;;29.20;;
37141;SDS011;23041;49.816;20.092;2022-11-15T15:23:25;49.65;;;33.78;;
37141;SDS011;23041;49.816;20.092;2022-11-15T15:25:53;45.92;;;31.73;;
37141;SDS011;23041;49.816;20.092;2022-11-15T15:28:19;40.63;;;29.98;;
37141;SDS011;23041;49.816;20.092;2022-11-15T15:30:46;42.93;;;29.82;;
37141;SDS011;23041;49.816;20.092;2022-11-15T15:33:12;36.77;;;25.20;;
37141;SDS011;23041;49.816;20.092;2022-11-15T15:35:38;34.90;;;25.02;;
37141;SDS011;23041;49.816;20.092;2022-11-15T15:38:05;28.50;;;21.50;;
37141;SDS011;23041;49.816;20.092;2022-11-15T15:40:32;36.73;;;25.17;;
37141;SDS011;23041;49.816;20.092;2022-11-15T15:42:59;36.23;;;26.33;;
37141;SDS011;23041;49.816;20.092;2022-11-15T15:45:25;31.80;;;24.57;;
37141;SDS011;23041;49.816;20.092;2022-11-15T15:47:55;33.60;;;24.92;;
37141;SDS011;23041;49.816;20.092;2022-11-15T15:50:32;35.52;;;26.90;;
37141;SDS011;23041;49.816;20.092;2022-11-15T15:52:59;43.42;;;28.45;;
37141;SDS011;23041;49.816;20.092;2022-11-15T15:55:28;40.73;;;26.67;;
37141;SDS011;23041;49.816;20.092;2022-11-15T15:57:55;38.35;;;25.82;;
37141;SDS011;23041;49.816;20.092;2022-11-15T16:00:22;51.63;;;31.93;;
37141;SDS011;23041;49.816;20.092;2022-11-15T16:02:50;43.78;;;29.87;;
37141;SDS011;23041;49.816;20.092;2022-11-15T16:05:18;42.25;;;28.85;;
37141;SDS011;23041;49.816;20.092;2022-11-15T16:07:45;41.58;;;28.95;;
37141;SDS011;23041;49.816;20.092;2022-11-15T16:12:47;46.02;;;31.90;;
37141;SDS011;23041;49.816;20.092;2022-11-15T16:15:14;44.60;;;31.50;;
37141;SDS011;23041;49.816;20.092;2022-11-15T16:17:44;41.85;;;29.82;;
37141;SDS011;23041;49.816;20.092;2022-11-15T16:23:13;34.43;;;24.75;;
37141;SDS011;23041;49.816;20.092;2022-11-15T16:25:42;38.42;;;26.45;;
37141;SDS011;23041;49.816;20.092;2022-11-15T16:28:19;42.27;;;28.12;;
37141;SDS011;23041;49.816;20.092;2022-11-15T16:33:37;33.60;;;25.55;;
37141;SDS011;23041;49.816;20.092;2022-11-15T16:36:04;33.60;;;25.00;;
37141;SDS011;23041;49.816;20.092;2022-11-15T16:38:33;43.83;;;30.05;;
37141;SDS011;23041;49.816;20.092;2022-11-15T16:41:01;46.58;;;32.10;;
37141;SDS011;23041;49.816;20.092;2022-11-15T16:43:27;45.03;;;30.85;;
37141;SDS011;23041;49.816;20.092;2022-11-15T16:45:54;45.92;;;31.07;;
37141;SDS011;23041;49.816;20.092;2022-11-15T16:48:25;44.33;;;31.93;;
37141;SDS011;23041;49.816;20.092;2022-11-15T16:50:52;43.17;;;30.80;;